Time;durP1;ratioP1;P1;durP2;ratioP2;P2;SDS_P1;SDS_P2;PMS_P1;PMS_P2;Temp;Humidity;BMP_temperature;BMP_pressure;BME280_temperature;BME280_humidity;BME280_pressure;Samples;Min_cycle;Max_cycle;Signal;HPM_P1;HPM_P2
2023/03/16 00:01:07;;;;;;;5.82;1.80;;;4.00;99.90;;;;;;4982116;28;20473;-76
2023/03/16 00:03:35;;;;;;;2.25;1.23;;;4.00;99.90;;;;;;4982448;28;20138;-76
2023/03/16 00:06:02;;;;;;;2.05;1.50;;;3.90;99.90;;;;;;4987348;28;20565;-77
2023/03/16 00:08:29;;;;;;;1.67;1.27;;;3.80;99.90;;;;;;4981029;28;20101;-77
2023/03/16 00:10:55;;;;;;;3.00;1.17;;;3.80;99.90;;;;;;4983069;28;20533;-77
2023/03/16 00:13:23;;;;;;;5.90;1.55;;;3.80;99.90;;;;;;4978687;28;20053;-77
2023/03/16 00:15:54;;;;;;;1.63;0.90;;;3.70;99.90;;;;;;4981268;28;20078;-77
2023/03/16 00:18:26;;;;;;;2.60;1.30;;;3.70;99.90;;;;;;4978794;28;20109;-77
2023/03/16 00:20:55;;;;;;;1.38;1.10;;;3.70;99.90;;;;;;4983846;28;20047;-77
2023/03/16 00:23:26;;;;;;;4.53;1.42;;;3.70;99.90;;;;;;4991936;28;20129;-76
2023/03/16 00:25:57;;;;;;;2.53;1.60;;;3.70;99.90;;;;;;4988014;28;20069;-77
2023/03/16 00:28:26;;;;;;;3.38;1.48;;;3.70;99.90;;;;;;4986494;28;20085;-77
2023/03/16 00:30:57;;;;;;;2.65;1.30;;;3.70;99.90;;;;;;4986590;28;20062;-77
2023/03/16 00:33:25;;;;;;;0.90;0.90;;;3.70;99.90;;;;;;4988591;28;20682;-76
2023/03/16 00:36:00;;;;;;;2.17;1.38;;;3.70;99.90;;;;;;4986517;28;20057;-75
2023/03/16 00:38:31;;;;;;;2.83;1.25;;;3.70;99.90;;;;;;4988734;28;20069;-76
2023/03/16 00:40:57;;;;;;;1.80;1.30;;;3.60;99.90;;;;;;4984759;28;20050;-76
2023/03/16 00:43:26;;;;;;;2.95;1.25;;;3.60;99.90;;;;;;4984169;28;20050;-76
2023/03/16 00:46:05;;;;;;;1.90;1.27;;;3.60;99.90;;;;;;4981576;28;20093;-76
2023/03/16 00:48:33;;;;;;;2.95;1.58;;;3.60;99.90;;;;;;4990493;28;20061;-77
2023/03/16 00:51:05;;;;;;;3.45;1.30;;;3.60;99.90;;;;;;4982649;28;20080;-78
2023/03/16 00:53:34;;;;;;;7.15;2.10;;;3.60;99.90;;;;;;4984428;28;20055;-77
2023/03/16 00:56:03;;;;;;;4.20;1.95;;;3.50;99.90;;;;;;4982370;28;20080;-76
2023/03/16 00:58:34;;;;;;;3.10;1.70;;;3.50;99.90;;;;;;4979626;28;20043;-76
2023/03/16 01:01:06;;;;;;;3.03;1.70;;;3.50;99.90;;;;;;4980121;28;20084;-76
2023/03/16 01:03:33;;;;;;;3.00;1.58;;;3.50;99.90;;;;;;4981815;28;20133;-76
2023/03/16 01:06:15;;;;;;;4.78;2.13;;;3.40;99.90;;;;;;4990069;28;20133;-76
2023/03/16 01:08:43;;;;;;;5.80;2.30;;;3.40;99.90;;;;;;4989558;28;20081;-75
2023/03/16 01:11:15;;;;;;;5.57;2.92;;;3.40;99.90;;;;;;4987550;28;20057;-76
2023/03/16 01:13:43;;;;;;;5.32;2.22;;;3.40;99.90;;;;;;4986610;28;20094;-78
2023/03/16 01:16:09;;;;;;;2.72;1.77;;;3.40;99.90;;;;;;4984636;28;20429;-76
2023/03/16 01:18:37;;;;;;;2.70;1.55;;;3.40;99.90;;;;;;4982462;28;20042;-76
2023/03/16 01:21:06;;;;;;;5.10;2.35;;;3.40;99.90;;;;;;4981710;28;20046;-76
2023/03/16 01:23:34;;;;;;;3.97;1.60;;;3.30;99.90;;;;;;4981285;28;20053;-77
2023/03/16 01:26:01;;;;;;;4.25;2.05;;;3.30;99.90;;;;;;4980738;28;20511;-75
2023/03/16 01:28:30;;;;;;;4.53;2.35;;;3.30;99.90;;;;;;4984549;28;20064;-76
2023/03/16 01:31:04;;;;;;;3.08;2.00;;;3.30;99.90;;;;;;4980669;28;20574;-76
2023/03/16 01:33:32;;;;;;;5.65;2.13;;;3.30;99.90;;;;;;4979611;28;20046;-76
2023/03/16 01:36:05;;;;;;;3.53;1.90;;;3.30;99.90;;;;;;4980522;28;20050;-76
2023/03/16 01:38:32;;;;;;;4.82;2.15;;;3.20;99.90;;;;;;4979611;28;20133;-76
2023/03/16 01:40:59;;;;;;;3.13;1.73;;;3.20;99.90;;;;;;4979600;28;20523;-76
2023/03/16 01:43:28;;;;;;;4.38;1.73;;;3.20;99.90;;;;;;4977576;28;20049;-76
2023/03/16 01:45:57;;;;;;;4.28;2.00;;;3.20;99.90;;;;;;4980643;28;20047;-76
2023/03/16 01:48:26;;;;;;;4.45;1.83;;;3.20;99.90;;;;;;4981974;28;20046;-76
2023/03/16 01:50:55;;;;;;;3.72;2.05;;;3.20;99.90;;;;;;4985070;28;20054;-76
2023/03/16 01:53:23;;;;;;;3.90;1.85;;;3.20;99.90;;;;;;4986431;28;20058;-76
2023/03/16 01:55:50;;;;;;;4.30;2.08;;;3.20;99.90;;;;;;4984545;28;20060;-75
2023/03/16 01:58:17;;;;;;;2.83;1.80;;;3.10;99.90;;;;;;4983470;28;20046;-75
2023/03/16 02:00:44;;;;;;;3.63;1.60;;;3.10;99.90;;;;;;4982419;28;20129;-75
2023/03/16 02:03:15;;;;;;;2.58;1.80;;;3.10;99.90;;;;;;4984009;28;20097;-75
2023/03/16 02:05:48;;;;;;;4.32;1.90;;;3.10;99.90;;;;;;4980546;28;20059;-76
2023/03/16 02:08:16;;;;;;;3.30;1.77;;;3.10;99.90;;;;;;4980808;28;20129;-75
2023/03/16 02:10:44;;;;;;;5.00;1.70;;;3.10;99.90;;;;;;4978771;28;20089;-76
2023/03/16 02:13:11;;;;;;;8.50;2.28;;;3.00;99.90;;;;;;4981053;28;20503;-75
2023/03/16 02:15:38;;;;;;;4.75;1.77;;;3.00;99.90;;;;;;4990596;28;20047;-76
2023/03/16 02:18:07;;;;;;;5.30;2.08;;;3.00;99.90;;;;;;4985062;28;20105;-75
2023/03/16 02:21:06;;;;;;;3.80;2.20;;;3.00;99.90;;;;;;4984060;28;20077;-75
2023/03/16 02:23:32;;;;;;;5.43;1.90;;;3.00;99.90;;;;;;4990388;28;20077;-75
2023/03/16 02:26:07;;;;;;;3.70;1.90;;;2.90;99.90;;;;;;4983766;28;20046;-76
2023/03/16 02:29:12;;;;;;;4.10;1.90;;;2.90;99.90;;;;;;4982648;28;20441;-76
2023/03/16 02:31:38;;;;;;;2.60;1.95;;;2.90;99.90;;;;;;4984047;28;20081;-75
2023/03/16 02:34:06;;;;;;;3.10;2.08;;;2.90;99.90;;;;;;4991647;28;20119;-75
2023/03/16 02:36:35;;;;;;;4.22;1.77;;;2.90;99.90;;;;;;4988191;28;20076;-74
2023/03/16 02:39:02;;;;;;;3.58;1.77;;;2.90;99.90;;;;;;4988313;28;20057;-76
2023/03/16 02:41:31;;;;;;;2.45;1.77;;;2.90;99.90;;;;;;4983889;28;20042;-75
2023/03/16 02:44:14;;;;;;;6.47;2.10;;;2.80;99.90;;;;;;4987460;28;20051;-75
2023/03/16 02:46:42;;;;;;;4.97;2.35;;;2.90;99.90;;;;;;4984794;28;20051;-76
2023/03/16 02:49:23;;;;;;;4.40;1.80;;;2.90;99.90;;;;;;4985393;28;20073;-76
2023/03/16 02:51:51;;;;;;;2.05;1.48;;;2.80;99.90;;;;;;4988772;28;20054;-76
2023/03/16 02:54:17;;;;;;;2.63;1.70;;;2.80;99.90;;;;;;4992478;28;20506;-75
2023/03/16 02:56:44;;;;;;;3.35;2.13;;;2.80;99.90;;;;;;4981967;28;20506;-75
2023/03/16 02:59:11;;;;;;;3.70;1.70;;;2.80;99.90;;;;;;4985380;28;20418;-76
2023/03/16 03:01:37;;;;;;;2.97;1.73;;;2.80;99.90;;;;;;4978817;28;20514;-75
2023/03/16 03:04:05;;;;;;;3.17;1.70;;;2.80;99.90;;;;;;4983769;28;20046;-76
2023/03/16 03:06:32;;;;;;;2.58;1.63;;;2.80;99.90;;;;;;4980067;28;20051;-76
2023/03/16 03:09:00;;;;;;;3.15;2.22;;;2.80;99.90;;;;;;4982671;28;20555;-75
2023/03/16 03:11:27;;;;;;;6.70;1.65;;;2.80;99.90;;;;;;4979916;28;20042;-76
2023/03/16 03:13:54;;;;;;;4.63;1.80;;;2.80;99.90;;;;;;4984716;28;20057;-76
2023/03/16 03:16:21;;;;;;;3.88;1.83;;;2.80;99.90;;;;;;4988519;28;20058;-75
2023/03/16 03:18:48;;;;;;;5.60;1.95;;;2.80;99.90;;;;;;4986543;28;20499;-76
2023/03/16 03:21:15;;;;;;;2.28;1.60;;;2.80;99.90;;;;;;4986080;28;20054;-76
2023/03/16 03:23:45;;;;;;;2.58;1.40;;;2.70;99.90;;;;;;4989893;28;20047;-75
2023/03/16 03:26:14;;;;;;;3.35;1.55;;;2.70;99.90;;;;;;4990501;28;20061;-76
2023/03/16 03:28:41;;;;;;;2.08;1.45;;;2.70;99.90;;;;;;4988667;28;20494;-75
2023/03/16 03:31:16;;;;;;;5.07;1.95;;;2.70;99.90;;;;;;4984282;28;20047;-75
2023/03/16 03:33:44;;;;;;;2.10;1.50;;;2.70;99.90;;;;;;4988293;28;20047;-75
2023/03/16 03:36:10;;;;;;;5.13;1.60;;;2.70;99.90;;;;;;4983214;28;20050;-76
2023/03/16 03:38:37;;;;;;;3.75;1.90;;;2.70;99.90;;;;;;4981330;28;20442;-76
2023/03/16 03:41:06;;;;;;;4.13;2.10;;;2.60;99.90;;;;;;4980825;28;20047;-76
2023/03/16 03:43:33;;;;;;;4.25;1.67;;;2.60;99.90;;;;;;4982448;28;20078;-76
2023/03/16 03:46:01;;;;;;;3.28;1.88;;;2.60;99.90;;;;;;4982016;28;20050;-76
2023/03/16 03:48:29;;;;;;;3.70;1.80;;;2.60;99.90;;;;;;4982062;28;20089;-76
2023/03/16 03:50:55;;;;;;;3.60;1.65;;;2.60;99.90;;;;;;4991344;28;20053;-76
2023/03/16 03:53:22;;;;;;;2.65;1.55;;;2.60;99.90;;;;;;4989941;28;20050;-76
2023/03/16 03:55:49;;;;;;;1.75;1.50;;;2.60;99.90;;;;;;4982730;28;20426;-76
2023/03/16 03:58:16;;;;;;;3.00;1.80;;;2.60;99.90;;;;;;4988431;28;20043;-75
2023/03/16 04:00:42;;;;;;;3.97;1.77;;;2.50;99.90;;;;;;4988208;28;20058;-76
2023/03/16 04:03:09;;;;;;;2.33;1.52;;;2.50;99.90;;;;;;4985257;28;20069;-76
2023/03/16 04:05:36;;;;;;;5.43;1.77;;;2.50;99.90;;;;;;4989896;28;20137;-76
2023/03/16 04:08:03;;;;;;;2.45;1.75;;;2.50;99.90;;;;;;4983549;28;20058;-76
2023/03/16 04:10:30;;;;;;;3.58;1.50;;;2.50;99.90;;;;;;4984575;28;20057;-75
2023/03/16 04:12:58;;;;;;;1.88;1.60;;;2.50;99.90;;;;;;4981111;28;20129;-75
2023/03/16 04:15:25;;;;;;;3.55;1.63;;;2.50;99.90;;;;;;4986814;28;20042;-75
2023/03/16 04:17:52;;;;;;;3.33;1.70;;;2.50;99.90;;;;;;4989826;28;20052;-75
2023/03/16 04:20:19;;;;;;;2.65;1.65;;;2.50;99.90;;;;;;4983502;28;20058;-76
2023/03/16 04:22:46;;;;;;;3.25;1.65;;;2.50;99.90;;;;;;4978225;28;20470;-76
2023/03/16 04:25:16;;;;;;;4.45;2.85;;;2.50;99.90;;;;;;4984433;28;20058;-75
2023/03/16 04:27:43;;;;;;;4.05;1.65;;;2.50;99.90;;;;;;4977717;28;20054;-75
2023/03/16 04:30:12;;;;;;;2.10;1.55;;;2.50;99.90;;;;;;4983240;28;20046;-76
2023/03/16 04:32:40;;;;;;;1.45;1.35;;;2.50;99.90;;;;;;4978967;28;20084;-75
2023/03/16 04:35:07;;;;;;;1.95;1.67;;;2.50;99.90;;;;;;4984529;28;20421;-76
2023/03/16 04:37:34;;;;;;;2.25;1.63;;;2.50;99.90;;;;;;4985064;28;20053;-76
2023/03/16 04:40:09;;;;;;;2.75;1.95;;;2.50;99.90;;;;;;4984901;28;20054;-75
2023/03/16 04:42:36;;;;;;;2.33;1.30;;;2.50;99.90;;;;;;4985505;28;20060;-76
2023/03/16 04:45:03;;;;;;;3.00;1.67;;;2.50;99.90;;;;;;4981069;28;20054;-75
2023/03/16 04:47:32;;;;;;;2.47;2.28;;;2.50;99.90;;;;;;4987460;28;20145;-76
2023/03/16 04:50:01;;;;;;;3.58;1.73;;;2.50;99.90;;;;;;4981212;28;20054;-76
2023/03/16 04:52:28;;;;;;;3.58;1.40;;;2.50;99.90;;;;;;4989963;28;20038;-75
2023/03/16 04:54:55;;;;;;;5.20;2.00;;;2.40;99.90;;;;;;4988703;28;20493;-76
2023/03/16 04:57:21;;;;;;;2.45;1.58;;;2.50;99.90;;;;;;4986784;28;20042;-76
2023/03/16 04:59:49;;;;;;;2.80;1.60;;;2.50;99.90;;;;;;4978391;28;20050;-76
2023/03/16 05:02:18;;;;;;;3.95;1.85;;;2.40;99.90;;;;;;4981843;28;20047;-76
2023/03/16 05:04:45;;;;;;;3.13;1.85;;;2.50;99.90;;;;;;4977200;28;20050;-76
2023/03/16 05:07:11;;;;;;;5.45;1.63;;;2.50;99.90;;;;;;4981690;28;20050;-76
2023/03/16 05:09:38;;;;;;;2.00;1.70;;;2.40;99.90;;;;;;4976987;28;20054;-75
2023/03/16 05:12:05;;;;;;;2.33;1.38;;;2.50;99.90;;;;;;4984150;28;20078;-76
2023/03/16 05:14:34;;;;;;;2.90;1.83;;;2.50;99.90;;;;;;4980787;28;20054;-76
2023/03/16 05:17:02;;;;;;;3.65;1.77;;;2.50;99.90;;;;;;4983157;28;20065;-76
2023/03/16 05:19:29;;;;;;;3.83;1.77;;;2.50;99.90;;;;;;4984184;28;20101;-76
2023/03/16 05:21:56;;;;;;;4.50;1.77;;;2.50;99.90;;;;;;4984019;28;20487;-76
2023/03/16 05:24:23;;;;;;;3.47;1.50;;;2.50;99.90;;;;;;4988778;28;20042;-76
2023/03/16 05:26:49;;;;;;;2.35;1.60;;;2.50;99.90;;;;;;4985403;28;20121;-75
2023/03/16 05:29:16;;;;;;;1.52;1.40;;;2.50;99.90;;;;;;4987407;28;20051;-75
2023/03/16 05:31:45;;;;;;;2.55;1.50;;;2.50;99.90;;;;;;4980387;28;20075;-78
2023/03/16 05:34:12;;;;;;;3.90;2.10;;;2.50;99.90;;;;;;4983827;28;20065;-78
2023/03/16 05:36:39;;;;;;;3.63;2.05;;;2.50;99.90;;;;;;4980292;28;20157;-77
2023/03/16 05:39:07;;;;;;;2.47;1.63;;;2.50;99.90;;;;;;4981598;28;20122;-76
2023/03/16 05:41:34;;;;;;;4.90;1.60;;;2.50;99.90;;;;;;4982217;28;20105;-76
2023/03/16 05:44:00;;;;;;;3.22;1.70;;;2.50;99.90;;;;;;4988642;28;20053;-76
2023/03/16 05:46:27;;;;;;;1.52;1.40;;;2.50;99.90;;;;;;4981403;28;20046;-76
2023/03/16 05:48:54;;;;;;;6.03;1.90;;;2.50;99.90;;;;;;4982411;28;20050;-76
2023/03/16 05:51:20;;;;;;;2.75;1.60;;;2.50;99.90;;;;;;4978940;28;20058;-76
2023/03/16 05:53:48;;;;;;;3.85;2.10;;;2.50;99.90;;;;;;4980123;28;20054;-76
2023/03/16 05:56:14;;;;;;;5.55;2.05;;;2.50;99.90;;;;;;4984402;28;20076;-76
2023/03/16 05:58:41;;;;;;;2.70;1.67;;;2.50;99.90;;;;;;4980012;28;20145;-76
2023/03/16 06:01:09;;;;;;;3.88;1.73;;;2.50;99.90;;;;;;4979027;28;20069;-76
2023/03/16 06:03:36;;;;;;;3.67;1.90;;;2.50;99.90;;;;;;4982826;28;20053;-75
2023/03/16 06:06:03;;;;;;;7.32;1.70;;;2.50;99.90;;;;;;4984093;28;20089;-77
2023/03/16 06:08:29;;;;;;;2.00;1.75;;;2.50;99.90;;;;;;4976664;28;20047;-76
2023/03/16 06:10:56;;;;;;;3.63;2.50;;;2.50;99.90;;;;;;4978468;28;20046;-76
2023/03/16 06:13:23;;;;;;;4.82;2.45;;;2.50;99.90;;;;;;4981350;28;20051;-76
2023/03/16 06:15:49;;;;;;;4.10;2.50;;;2.60;99.90;;;;;;4979927;28;20054;-76
2023/03/16 06:18:16;;;;;;;5.25;3.10;;;2.60;99.90;;;;;;4981557;28;20050;-76
2023/03/16 06:20:43;;;;;;;8.00;3.08;;;2.60;99.90;;;;;;4980735;28;20062;-76
2023/03/16 06:23:09;;;;;;;7.60;3.38;;;2.60;99.90;;;;;;4980490;28;20046;-76
2023/03/16 06:25:36;;;;;;;9.18;3.75;;;2.60;99.90;;;;;;4985041;28;20082;-76
2023/03/16 06:28:07;;;;;;;6.53;4.28;;;2.60;99.90;;;;;;4980454;28;20078;-76
2023/03/16 06:30:33;;;;;;;6.63;4.00;;;2.60;99.90;;;;;;4975781;28;20062;-76
2023/03/16 06:33:01;;;;;;;9.40;4.20;;;2.60;99.90;;;;;;4981349;28;20057;-76
2023/03/16 06:35:27;;;;;;;7.82;3.72;;;2.70;99.90;;;;;;4989492;28;20046;-76
2023/03/16 06:37:54;;;;;;;14.70;5.80;;;2.70;99.90;;;;;;4981731;28;20047;-76
2023/03/16 06:40:21;;;;;;;10.98;5.72;;;2.70;99.90;;;;;;4988858;28;20054;-75
2023/03/16 06:42:48;;;;;;;14.63;7.13;;;2.70;99.90;;;;;;4984130;28;20053;-75
2023/03/16 06:45:16;;;;;;;10.45;5.05;;;2.70;99.90;;;;;;4989162;28;20097;-75
2023/03/16 06:47:43;;;;;;;7.90;4.00;;;2.80;99.90;;;;;;4982945;28;20058;-76
2023/03/16 06:50:10;;;;;;;5.28;2.72;;;2.80;99.90;;;;;;4985497;28;20522;-75
2023/03/16 06:52:37;;;;;;;8.23;2.45;;;2.80;99.90;;;;;;4987605;28;20101;-75
2023/03/16 06:55:05;;;;;;;5.80;2.70;;;2.80;99.90;;;;;;4982696;28;20046;-75
2023/03/16 06:57:32;;;;;;;4.82;2.53;;;2.80;99.90;;;;;;4988457;28;20039;-76
2023/03/16 06:59:58;;;;;;;10.70;3.03;;;2.80;99.90;;;;;;4982132;28;20046;-76
2023/03/16 07:02:25;;;;;;;3.67;2.47;;;2.80;99.90;;;;;;4982343;28;20051;-76
2023/03/16 07:04:52;;;;;;;4.78;3.53;;;2.90;99.90;;;;;;4984338;28;20070;-76
2023/03/16 07:07:20;;;;;;;4.38;3.33;;;2.90;99.90;;;;;;4980004;28;20126;-76
2023/03/16 07:09:47;;;;;;;7.38;3.25;;;2.90;99.90;;;;;;4984582;28;20202;-76
2023/03/16 07:12:14;;;;;;;4.53;3.33;;;3.00;99.90;;;;;;4980686;28;20427;-76
2023/03/16 07:14:40;;;;;;;4.90;2.67;;;3.00;99.90;;;;;;4982866;28;20050;-76
2023/03/16 07:17:07;;;;;;;9.25;3.25;;;3.10;99.90;;;;;;4979920;28;20053;-76
2023/03/16 07:19:34;;;;;;;7.28;3.42;;;3.20;99.90;;;;;;4991857;28;20064;-76
2023/03/16 07:22:01;;;;;;;6.05;3.78;;;3.20;99.90;;;;;;4985869;28;20411;-76
2023/03/16 07:24:29;;;;;;;7.97;3.45;;;3.30;99.90;;;;;;4982485;28;20043;-76
2023/03/16 07:26:56;;;;;;;5.50;3.03;;;3.40;99.90;;;;;;4990099;28;20157;-75
2023/03/16 07:29:22;;;;;;;4.97;3.30;;;3.40;99.90;;;;;;4992466;28;20053;-75
2023/03/16 07:31:49;;;;;;;4.13;2.72;;;3.50;99.90;;;;;;4988016;28;20399;-75
2023/03/16 07:34:17;;;;;;;6.88;3.67;;;3.50;99.90;;;;;;4985453;28;20050;-76
2023/03/16 07:36:43;;;;;;;6.13;3.90;;;3.50;99.90;;;;;;4986556;28;20085;-76
2023/03/16 07:39:13;;;;;;;7.10;4.65;;;3.60;99.90;;;;;;4983668;28;20491;-76
2023/03/16 07:41:40;;;;;;;9.55;4.75;;;3.60;99.90;;;;;;4985626;28;20101;-76
2023/03/16 07:44:07;;;;;;;8.13;4.70;;;3.70;99.90;;;;;;4983046;28;20093;-76
2023/03/16 07:46:34;;;;;;;8.15;4.90;;;3.70;99.90;;;;;;4981709;28;20137;-77
2023/03/16 07:49:01;;;;;;;13.02;4.18;;;3.80;99.90;;;;;;4980801;28;20051;-76
2023/03/16 07:51:28;;;;;;;9.27;5.05;;;3.80;99.90;;;;;;4983052;28;20058;-76
2023/03/16 07:53:54;;;;;;;6.70;4.70;;;3.90;99.90;;;;;;4980986;28;20058;-76
2023/03/16 07:56:21;;;;;;;8.00;4.38;;;4.00;99.90;;;;;;4979535;28;20055;-76
2023/03/16 07:58:47;;;;;;;7.18;4.97;;;4.10;99.90;;;;;;4981114;28;20047;-76
2023/03/16 08:01:15;;;;;;;8.15;4.35;;;4.10;99.90;;;;;;4991665;28;20447;-76
2023/03/16 08:03:41;;;;;;;8.88;4.18;;;4.20;99.90;;;;;;4981509;28;20063;-76
2023/03/16 08:06:08;;;;;;;9.93;4.72;;;4.30;99.90;;;;;;4981649;28;20050;-75
2023/03/16 08:08:35;;;;;;;6.63;4.45;;;4.30;99.90;;;;;;4987391;28;20062;-75
2023/03/16 08:11:01;;;;;;;7.30;5.32;;;4.40;99.90;;;;;;4989782;28;20054;-76
2023/03/16 08:13:29;;;;;;;6.53;4.35;;;4.50;99.90;;;;;;4988252;28;20399;-76
2023/03/16 08:16:00;;;;;;;9.02;4.63;;;4.60;99.90;;;;;;4987290;28;20054;-75
2023/03/16 08:18:28;;;;;;;7.97;4.45;;;4.60;99.90;;;;;;4986680;28;20047;-76
2023/03/16 08:20:56;;;;;;;7.25;4.57;;;4.70;99.90;;;;;;4983177;28;20047;-76
2023/03/16 08:23:23;;;;;;;7.45;5.15;;;4.80;99.90;;;;;;4983095;28;20051;-76
2023/03/16 08:25:55;;;;;;;8.13;4.50;;;4.80;99.90;;;;;;4983293;28;20050;-76
2023/03/16 08:28:24;;;;;;;6.22;4.10;;;4.80;99.90;;;;;;4988271;28;20137;-76
2023/03/16 08:30:52;;;;;;;6.53;4.22;;;4.90;99.90;;;;;;4987180;28;20055;-76
2023/03/16 08:33:19;;;;;;;6.55;4.20;;;4.90;99.90;;;;;;4987544;28;20054;-76
2023/03/16 08:35:49;;;;;;;6.85;4.40;;;4.90;99.90;;;;;;4982051;28;20043;-76
2023/03/16 08:38:17;;;;;;;6.10;4.40;;;4.90;99.90;;;;;;4989313;28;20470;-76
2023/03/16 08:40:47;;;;;;;7.20;4.13;;;5.00;99.90;;;;;;4982059;28;20493;-76
2023/03/16 08:43:16;;;;;;;8.80;4.68;;;5.00;99.90;;;;;;4979473;28;20174;-76
2023/03/16 08:45:47;;;;;;;11.80;4.72;;;5.10;99.90;;;;;;4981774;28;20573;-76
2023/03/16 08:48:14;;;;;;;7.43;4.65;;;5.10;99.90;;;;;;4982991;28;20042;-76
2023/03/16 08:50:42;;;;;;;7.97;4.63;;;5.10;99.90;;;;;;5013029;28;20090;-76
2023/03/16 08:53:10;;;;;;;6.45;4.03;;;5.20;99.90;;;;;;5015231;28;20034;-75
2023/03/16 08:55:37;;;;;;;9.15;4.60;;;5.20;99.90;;;;;;5008292;28;20038;-75
2023/03/16 08:58:04;;;;;;;5.40;4.05;;;5.30;99.90;;;;;;5012033;28;20102;-76
2023/03/16 09:00:31;;;;;;;8.00;4.90;;;5.30;99.90;;;;;;4995727;28;20050;-76
2023/03/16 09:02:59;;;;;;;6.75;4.40;;;5.30;99.90;;;;;;4985624;28;20435;-76
2023/03/16 09:05:26;;;;;;;8.65;4.20;;;5.30;99.90;;;;;;4983205;28;20478;-76
2023/03/16 09:07:53;;;;;;;9.20;4.53;;;5.30;99.90;;;;;;4983924;28;20144;-76
2023/03/16 09:10:21;;;;;;;11.00;4.90;;;5.40;99.90;;;;;;4989313;28;20050;-75
2023/03/16 09:12:50;;;;;;;8.18;4.20;;;5.40;99.90;;;;;;4982612;28;20050;-76
2023/03/16 09:15:19;;;;;;;9.88;4.53;;;5.50;99.90;;;;;;4988083;28;20058;-76
2023/03/16 09:17:47;;;;;;;7.15;3.38;;;5.50;99.90;;;;;;4981395;28;20403;-76
2023/03/16 09:20:19;;;;;;;7.60;4.10;;;5.50;99.90;;;;;;4977146;28;20057;-76
2023/03/16 09:22:54;;;;;;;6.55;3.83;;;5.60;99.90;;;;;;4980002;28;20050;-76
2023/03/16 09:25:21;;;;;;;7.13;3.47;;;5.60;99.90;;;;;;4975266;28;20050;-76
2023/03/16 09:27:48;;;;;;;4.75;2.97;;;5.70;99.90;;;;;;4984013;28;20141;-75
2023/03/16 09:30:15;;;;;;;6.78;3.38;;;5.70;99.90;;;;;;4973564;28;20047;-75
2023/03/16 09:32:42;;;;;;;6.72;2.80;;;5.80;99.90;;;;;;4984575;28;20078;-76
2023/03/16 09:35:09;;;;;;;4.63;2.55;;;5.80;99.90;;;;;;4989178;28;20078;-75
2023/03/16 09:37:36;;;;;;;4.30;2.33;;;5.90;99.90;;;;;;4984668;28;20039;-76
2023/03/16 09:40:23;;;;;;;3.70;2.45;;;6.00;99.90;;;;;;4984574;28;20047;-76
2023/03/16 09:43:12;;;;;;;4.80;2.60;;;6.00;99.90;;;;;;4987464;28;20149;-76
2023/03/16 09:46:10;;;;;;;4.95;2.92;;;6.10;99.90;;;;;;4990470;28;20137;-76
2023/03/16 09:48:39;;;;;;;6.68;3.42;;;6.20;99.90;;;;;;4981895;28;20046;-76
2023/03/16 09:51:22;;;;;;;7.97;3.15;;;6.40;99.90;;;;;;4981769;28;20038;-76
2023/03/16 09:53:55;;;;;;;3.63;2.70;;;6.50;99.90;;;;;;4979848;28;20057;-76
2023/03/16 09:56:36;;;;;;;4.35;2.97;;;6.60;99.90;;;;;;4980270;28;20053;-76
2023/03/16 09:59:13;;;;;;;5.75;3.85;;;6.80;99.90;;;;;;4982204;28;20133;-76
2023/03/16 10:01:53;;;;;;;7.10;3.83;;;6.90;99.90;;;;;;4977371;28;20060;-76
2023/03/16 10:04:28;;;;;;;5.40;3.00;;;7.00;99.90;;;;;;4979366;28;20042;-76
2023/03/16 10:07:11;;;;;;;3.90;2.42;;;7.10;99.90;;;;;;4988398;28;20050;-76
2023/03/16 10:09:53;;;;;;;10.07;3.47;;;7.20;99.90;;;;;;4982662;28;20137;-76
2023/03/16 10:12:22;;;;;;;6.45;3.08;;;7.20;99.90;;;;;;4978007;28;20133;-76
2023/03/16 10:14:57;;;;;;;4.38;2.95;;;7.30;99.90;;;;;;4982384;28;20046;-76
2023/03/16 10:17:35;;;;;;;4.57;2.60;;;7.30;99.90;;;;;;4986842;28;20081;-75
2023/03/16 10:20:08;;;;;;;4.25;2.53;;;7.40;99.90;;;;;;4982008;28;20097;-75
2023/03/16 10:22:41;;;;;;;4.22;2.15;;;7.40;99.90;;;;;;4989955;28;20053;-76
2023/03/16 10:25:48;;;;;;;5.13;2.45;;;7.50;99.90;;;;;;4980809;28;20043;-76
2023/03/16 10:28:18;;;;;;;5.93;2.40;;;7.60;99.90;;;;;;4981790;28;20137;-76
2023/03/16 10:30:46;;;;;;;;;;;7.60;99.90;;;;;;4979601;28;20050;-76
2023/03/16 10:33:24;;;;;;;6.20;2.45;;;7.60;99.90;;;;;;4980159;28;20283;-76
2023/03/16 10:36:00;;;;;;;3.45;2.22;;;7.60;99.90;;;;;;4977549;28;20049;-76
2023/03/16 10:38:27;;;;;;;5.90;2.22;;;7.70;99.90;;;;;;4985064;28;20487;-76
2023/03/16 10:40:56;;;;;;;4.88;2.00;;;7.70;99.90;;;;;;4980330;28;20054;-75
2023/03/16 10:43:24;;;;;;;3.00;1.85;;;7.70;99.90;;;;;;4984921;28;20038;-76
2023/03/16 10:45:50;;;;;;;4.78;2.45;;;7.70;99.90;;;;;;4978853;28;20134;-76
2023/03/16 10:48:19;;;;;;;5.60;2.22;;;7.70;99.90;;;;;;4984285;28;20043;-76
2023/03/16 10:50:51;;;;;;;6.50;2.30;;;7.70;99.90;;;;;;4987626;28;20046;-76
2023/03/16 10:53:22;;;;;;;3.05;2.00;;;7.80;99.90;;;;;;4984296;28;20050;-76
2023/03/16 10:55:50;;;;;;;4.07;2.20;;;7.70;99.90;;;;;;4985578;28;20125;-76
2023/03/16 10:58:25;;;;;;;4.40;1.70;;;7.70;99.90;;;;;;4989468;28;20051;-76
2023/03/16 11:00:53;;;;;;;3.78;1.80;;;7.80;99.90;;;;;;4987370;28;20065;-76
2023/03/16 11:03:28;;;;;;;2.83;2.05;;;7.80;99.90;;;;;;4986640;28;20042;-76
2023/03/16 11:06:02;;;;;;;5.88;2.20;;;7.80;99.90;;;;;;4983987;28;20129;-75
2023/03/16 11:08:36;;;;;;;3.95;2.25;;;7.90;99.90;;;;;;4985973;28;20150;-76
2023/03/16 11:11:13;;;;;;;4.68;2.70;;;7.90;99.90;;;;;;4984608;28;20047;-76
2023/03/16 11:13:44;;;;;;;2.53;2.17;;;8.00;99.90;;;;;;4984792;28;20049;-76
2023/03/16 11:16:22;;;;;;;4.80;2.60;;;8.00;99.90;;;;;;4983985;28;20525;-76
2023/03/16 11:19:11;;;;;;;7.00;2.75;;;8.00;99.90;;;;;;4981504;28;20053;-76
2023/03/16 11:22:00;;;;;;;7.13;2.28;;;8.10;99.90;;;;;;4983521;28;20053;-76
2023/03/16 11:25:13;;;;;;;3.58;2.30;;;8.10;99.90;;;;;;4983025;28;20097;-76
2023/03/16 11:27:42;;;;;;;9.38;2.80;;;8.20;99.90;;;;;;4989337;28;20058;-76
2023/03/16 11:30:18;;;;;;;5.50;2.33;;;8.10;99.90;;;;;;4998451;28;20058;-76
2023/03/16 11:32:52;;;;;;;3.78;2.38;;;8.20;99.90;;;;;;4980180;28;20050;-76
2023/03/16 11:35:50;;;;;;;2.92;1.92;;;8.30;99.90;;;;;;4989193;28;20050;-76
2023/03/16 11:38:25;;;;;;;4.72;2.03;;;8.30;99.90;;;;;;4977342;28;20062;-76
2023/03/16 11:41:10;;;;;;;4.25;2.00;;;8.40;99.90;;;;;;4992297;28;20137;-75
2023/03/16 11:43:56;;;;;;;5.63;1.88;;;8.40;99.90;;;;;;4988573;28;20065;-76
2023/03/16 11:46:52;;;;;;;4.70;2.58;;;8.50;99.90;;;;;;4986670;28;20069;-75
2023/03/16 11:49:31;;;;;;;5.78;2.42;;;8.50;99.90;;;;;;4981872;28;20127;-76
2023/03/16 11:52:17;;;;;;;4.80;2.38;;;8.60;99.90;;;;;;4987836;28;20421;-76
2023/03/16 11:54:56;;;;;;;5.55;2.35;;;8.70;99.90;;;;;;4982915;28;20045;-76
2023/03/16 11:57:42;;;;;;;4.15;2.20;;;8.70;99.90;;;;;;4984950;28;20046;-76
2023/03/16 12:00:18;;;;;;;5.05;2.20;;;8.80;99.90;;;;;;4979810;28;20483;-76
2023/03/16 12:03:26;;;;;;;6.28;2.60;;;8.90;99.90;;;;;;4985221;28;20046;-76
2023/03/16 12:06:26;;;;;;;4.47;2.33;;;9.00;99.90;;;;;;4967874;28;20126;-76
2023/03/16 12:09:15;;;;;;;2.85;1.67;;;9.00;99.90;;;;;;4982584;28;20054;-76
2023/03/16 12:11:52;;;;;;;2.83;2.00;;;9.10;99.90;;;;;;4981194;28;20053;-76
2023/03/16 12:14:41;;;;;;;2.85;1.80;;;9.10;99.90;;;;;;4981035;28;20169;-76
2023/03/16 12:17:39;;;;;;;4.07;1.92;;;9.20;99.90;;;;;;4985447;28;20043;-76
2023/03/16 12:20:17;;;;;;;3.15;1.70;;;9.20;99.90;;;;;;4972488;28;20039;-76
2023/03/16 12:23:06;;;;;;;5.38;2.72;;;9.30;99.90;;;;;;4984424;28;20053;-76
2023/03/16 12:25:39;;;;;;;3.60;1.95;;;9.40;99.90;;;;;;4989664;28;20058;-76
2023/03/16 12:28:17;;;;;;;5.07;2.10;;;9.40;99.90;;;;;;4990108;28;20051;-76
2023/03/16 12:30:58;;;;;;;2.75;1.85;;;9.50;99.90;;;;;;4990017;28;20488;-76
2023/03/16 12:34:06;;;;;;;3.47;1.85;;;9.50;99.90;;;;;;4983366;28;20054;-77
2023/03/16 12:36:51;;;;;;;4.72;1.95;;;9.50;99.90;;;;;;4982939;28;20058;-76
2023/03/16 12:39:39;;;;;;;6.72;1.90;;;9.60;99.90;;;;;;4989314;28;20042;-76
2023/03/16 12:42:14;;;;;;;4.00;1.77;;;9.60;99.90;;;;;;4982935;28;20053;-76
2023/03/16 12:44:56;;;;;;;2.92;1.83;;;9.70;99.90;;;;;;4983343;28;20050;-76
2023/03/16 12:47:41;;;;;;;3.47;1.95;;;9.80;99.90;;;;;;4978788;28;20046;-76
2023/03/16 12:50:17;;;;;;;3.80;1.90;;;9.80;99.90;;;;;;4983786;28;20086;-76
2023/03/16 12:52:50;;;;;;;3.58;1.70;;;9.90;99.90;;;;;;4980458;28;20065;-76
2023/03/16 12:55:33;;;;;;;2.35;1.55;;;9.90;99.90;;;;;;4983144;28;20051;-76
2023/03/16 12:58:05;;;;;;;2.70;2.28;;;10.00;99.90;;;;;;4985998;28;20047;-76
2023/03/16 13:00:41;;;;;;;4.28;1.60;;;10.00;99.90;;;;;;4983252;28;20117;-76
2023/03/16 13:03:15;;;;;;;2.72;1.70;;;10.10;99.90;;;;;;4979379;28;20425;-76
2023/03/16 13:05:50;;;;;;;2.67;1.92;;;10.20;99.90;;;;;;4987040;28;20079;-76
2023/03/16 13:08:19;;;;;;;4.45;2.10;;;10.30;99.90;;;;;;4984967;28;20042;-76
2023/03/16 13:11:10;;;;;;;4.05;1.98;;;10.30;99.90;;;;;;4985379;28;20046;-77
2023/03/16 13:13:51;;;;;;;;;;;10.40;99.90;;;;;;4985940;28;20466;-76
2023/03/16 13:16:30;;;;;;;3.30;1.85;;;10.50;99.90;;;;;;4982740;28;20468;-76
2023/03/16 13:18:57;;;;;;;3.58;2.05;;;10.50;99.90;;;;;;4981738;28;20465;-77